createdAt,value
2022-07-28T00:00:09.223Z,0.00
2022-07-28T00:01:09.229Z,0.00
2022-07-28T00:02:09.346Z,0.00
2022-07-28T00:03:09.320Z,0.00
2022-07-28T00:04:09.184Z,0.00
2022-07-28T00:05:09.187Z,0.00
2022-07-28T00:06:09.161Z,0.00
2022-07-28T00:07:09.145Z,0.00
2022-07-28T00:08:09.216Z,0.00
2022-07-28T00:09:09.132Z,0.00
2022-07-28T00:10:09.116Z,0.00
2022-07-28T00:11:09.107Z,0.00
2022-07-28T00:12:09.096Z,0.00
2022-07-28T00:13:09.157Z,0.00
2022-07-28T00:14:09.076Z,0.00
2022-07-28T00:15:09.063Z,0.00
2022-07-28T00:16:09.122Z,0.00
2022-07-28T00:17:09.040Z,0.00
2022-07-28T00:18:09.067Z,0.00
2022-07-28T00:19:09.031Z,0.00
2022-07-28T00:20:08.998Z,0.00
2022-07-28T00:21:08.995Z,0.00
2022-07-28T00:22:09.039Z,0.00
2022-07-28T00:23:09.001Z,0.00
2022-07-28T00:24:08.977Z,0.00
2022-07-28T00:25:08.949Z,0.00
2022-07-28T00:26:09.331Z,0.00
2022-07-28T00:27:08.946Z,0.00
2022-07-28T00:28:08.985Z,0.00
2022-07-28T00:29:08.928Z,0.00
2022-07-28T00:30:08.902Z,0.00
2022-07-28T00:31:09.776Z,0.00
2022-07-28T00:32:09.931Z,0.00
2022-07-28T00:33:08.864Z,0.00
2022-07-28T00:34:08.904Z,0.00
2022-07-28T00:35:08.931Z,0.00
2022-07-28T00:36:11.610Z,0.00
2022-07-28T00:37:08.842Z,0.00
2022-07-28T00:38:08.823Z,0.00
2022-07-28T00:39:08.873Z,0.00
2022-07-28T00:40:08.844Z,0.00
2022-07-28T00:41:08.762Z,0.00
2022-07-28T00:42:08.764Z,0.00
2022-07-28T00:43:08.754Z,0.00
2022-07-28T00:44:08.747Z,0.00
2022-07-28T00:45:08.782Z,0.00
2022-07-28T00:46:08.776Z,0.00
2022-07-28T00:47:08.696Z,0.00
2022-07-28T00:48:08.703Z,0.00
2022-07-28T00:49:08.734Z,0.00
2022-07-28T00:50:08.684Z,0.00
2022-07-28T00:51:08.670Z,0.00
2022-07-28T00:52:08.658Z,0.00
2022-07-28T00:53:08.707Z,0.00
2022-07-28T00:54:08.647Z,0.00
2022-07-28T00:55:08.608Z,0.00
2022-07-28T00:56:08.667Z,0.00
2022-07-28T00:57:08.597Z,0.00
2022-07-28T00:58:08.600Z,0.00
2022-07-28T00:59:08.568Z,0.00
2022-07-28T01:00:08.569Z,0.00
2022-07-28T01:01:08.573Z,0.00
2022-07-28T01:02:08.716Z,0.00
2022-07-28T01:03:08.583Z,0.00
2022-07-28T01:04:08.515Z,0.00
2022-07-28T01:05:08.530Z,0.00
2022-07-28T01:06:08.568Z,0.00
2022-07-28T01:07:08.494Z,0.00
2022-07-28T01:08:08.491Z,0.00
2022-07-28T01:09:08.471Z,0.00
2022-07-28T01:10:08.455Z,0.00
2022-07-28T01:11:08.552Z,0.00
2022-07-28T01:12:08.472Z,0.00
2022-07-28T01:13:08.412Z,0.00
2022-07-28T01:14:08.430Z,0.00
2022-07-28T01:15:08.393Z,0.00
2022-07-28T01:16:08.439Z,0.00
2022-07-28T01:17:08.409Z,0.00
2022-07-28T01:18:08.395Z,0.00
2022-07-28T01:19:08.364Z,0.00
2022-07-28T01:20:08.362Z,0.00
2022-07-28T01:21:08.323Z,0.00
2022-07-28T01:22:08.334Z,0.00
2022-07-28T01:23:08.325Z,0.00
2022-07-28T01:24:08.573Z,0.00
2022-07-28T01:25:08.295Z,0.00
2022-07-28T01:26:08.284Z,0.00
2022-07-28T01:27:08.333Z,0.00
2022-07-28T01:28:08.257Z,0.00
2022-07-28T01:29:08.256Z,0.00
2022-07-28T01:30:08.249Z,0.00
2022-07-28T01:31:08.342Z,0.00
2022-07-28T01:32:08.235Z,0.00
2022-07-28T01:33:08.220Z,0.00
2022-07-28T01:34:08.248Z,0.00
2022-07-28T01:35:08.188Z,0.00
2022-07-28T01:36:08.184Z,0.00
2022-07-28T01:37:08.196Z,0.00
2022-07-28T01:38:08.197Z,0.00
2022-07-28T01:39:08.143Z,0.00
2022-07-28T01:40:08.180Z,0.00
2022-07-28T01:41:08.144Z,0.00
2022-07-28T01:42:08.113Z,0.00
2022-07-28T01:43:08.393Z,0.00
2022-07-28T01:44:08.087Z,0.00
2022-07-28T01:45:08.083Z,0.00
2022-07-28T01:46:08.130Z,0.00
2022-07-28T01:47:08.046Z,0.00
2022-07-28T01:48:08.050Z,0.00
2022-07-28T01:49:08.127Z,0.00
2022-07-28T01:50:08.028Z,0.00
2022-07-28T01:51:08.013Z,0.00
2022-07-28T01:52:08.004Z,0.00
2022-07-28T01:53:07.994Z,0.00
2022-07-28T01:54:08.004Z,0.00
2022-07-28T01:55:07.974Z,0.00
2022-07-28T01:56:07.952Z,0.00
2022-07-28T01:57:08.004Z,0.00
2022-07-28T01:58:07.935Z,0.00
2022-07-28T01:59:07.945Z,0.00
2022-07-28T02:00:07.906Z,0.00
2022-07-28T02:01:07.971Z,0.00
2022-07-28T02:02:07.972Z,0.00
2022-07-28T02:03:07.896Z,0.00
2022-07-28T02:04:07.899Z,0.00
2022-07-28T02:05:07.925Z,0.00
2022-07-28T02:06:07.856Z,0.00
2022-07-28T02:07:07.886Z,0.00
2022-07-28T02:08:07.827Z,0.00
2022-07-28T02:09:07.818Z,0.00
2022-07-28T02:10:07.861Z,0.00
2022-07-28T02:11:09.233Z,0.00
2022-07-28T02:12:07.796Z,0.00
2022-07-28T02:13:07.767Z,0.00
2022-07-28T02:14:07.772Z,0.00
2022-07-28T02:15:07.908Z,0.00
2022-07-28T02:16:07.932Z,0.00
2022-07-28T02:17:07.750Z,0.00
2022-07-28T02:18:07.729Z,0.00
2022-07-28T02:19:07.728Z,0.00
2022-07-28T02:20:07.717Z,0.00
2022-07-28T02:21:07.700Z,0.00
2022-07-28T02:22:07.681Z,0.00
2022-07-28T02:23:07.661Z,0.00
2022-07-28T02:24:07.662Z,0.00
2022-07-28T02:25:07.651Z,0.00
2022-07-28T02:26:07.671Z,0.00
2022-07-28T02:27:07.623Z,0.00
2022-07-28T02:28:07.613Z,0.00
2022-07-28T02:29:07.594Z,0.00
2022-07-28T02:30:07.596Z,0.00
2022-07-28T02:31:07.626Z,0.00
2022-07-28T02:32:12.406Z,0.00
2022-07-28T02:33:08.551Z,0.00
2022-07-28T02:34:07.736Z,0.00
2022-07-28T02:35:09.382Z,0.00
2022-07-28T02:36:07.765Z,0.00
2022-07-28T02:37:07.514Z,0.00
2022-07-28T02:38:07.501Z,0.00
2022-07-28T02:39:07.503Z,0.00
2022-07-28T02:40:07.493Z,0.00
2022-07-28T02:41:07.507Z,0.00
2022-07-28T02:42:07.505Z,0.00
2022-07-28T02:43:07.452Z,0.00
2022-07-28T02:44:07.457Z,0.00
2022-07-28T02:45:07.417Z,0.00
2022-07-28T02:46:07.467Z,0.00
2022-07-28T02:47:07.446Z,0.00
2022-07-28T02:48:07.402Z,0.00
2022-07-28T02:49:07.472Z,0.00
2022-07-28T02:50:07.377Z,0.00
2022-07-28T02:51:07.359Z,0.00
2022-07-28T02:52:07.351Z,0.00
2022-07-28T02:53:15.291Z,0.00
2022-07-28T02:54:08.338Z,0.00
2022-07-28T02:55:07.311Z,0.00
2022-07-28T02:56:07.329Z,0.00
2022-07-28T02:57:07.340Z,0.00
2022-07-28T02:58:07.300Z,0.00
2022-07-28T02:59:07.567Z,0.00
2022-07-28T03:00:07.280Z,0.00
2022-07-28T03:01:07.327Z,4.00
2022-07-28T03:02:07.248Z,4.00
2022-07-28T03:03:07.253Z,4.00
2022-07-28T03:04:07.211Z,4.00
2022-07-28T03:05:07.558Z,0.00
2022-07-28T03:06:07.197Z,0.00
2022-07-28T03:07:07.255Z,4.00
2022-07-28T03:08:07.177Z,4.00
2022-07-28T03:09:07.278Z,4.00
2022-07-28T03:10:07.162Z,4.00
2022-07-28T03:11:07.153Z,4.00
2022-07-28T03:12:07.132Z,4.00
2022-07-28T03:13:07.166Z,4.00
2022-07-28T03:14:07.154Z,4.00
2022-07-28T03:15:07.095Z,8.00
2022-07-28T03:16:07.085Z,8.00
2022-07-28T03:17:07.127Z,8.00
2022-07-28T03:18:07.077Z,4.00
2022-07-28T03:19:07.064Z,8.00
2022-07-28T03:20:07.037Z,8.00
2022-07-28T03:21:07.045Z,8.00
2022-07-28T03:22:07.023Z,8.00
2022-07-28T03:23:07.007Z,12.00
2022-07-28T03:24:07.025Z,12.00
2022-07-28T03:25:06.987Z,12.00
2022-07-28T03:26:06.977Z,12.00
2022-07-28T03:27:06.982Z,12.00
2022-07-28T03:28:06.955Z,12.00
2022-07-28T03:29:06.946Z,12.00
2022-07-28T03:30:06.961Z,16.00
2022-07-28T03:31:06.996Z,12.00
2022-07-28T03:32:06.917Z,12.00
2022-07-28T03:33:06.897Z,16.00
2022-07-28T03:34:06.933Z,16.00
2022-07-28T03:35:07.119Z,16.00
2022-07-28T03:36:06.870Z,16.00
2022-07-28T03:37:06.861Z,20.00
2022-07-28T03:38:06.870Z,20.00
2022-07-28T03:39:06.830Z,20.00
2022-07-28T03:40:06.834Z,20.00
2022-07-28T03:41:06.847Z,20.00
2022-07-28T03:42:06.831Z,20.00
2022-07-28T03:43:06.823Z,20.00
2022-07-28T03:44:06.782Z,20.00
2022-07-28T03:45:06.762Z,24.00
2022-07-28T03:46:11.239Z,20.00
2022-07-28T03:47:07.743Z,24.00
2022-07-28T03:48:06.756Z,28.00
2022-07-28T03:49:06.796Z,28.00
2022-07-28T03:50:06.815Z,24.00
2022-07-28T03:51:06.734Z,28.00
2022-07-28T03:52:06.703Z,28.00
2022-07-28T03:53:06.694Z,28.00
2022-07-28T03:54:06.707Z,36.00
2022-07-28T03:55:06.660Z,32.00
2022-07-28T03:56:06.673Z,36.00
2022-07-28T03:57:06.658Z,36.00
2022-07-28T03:58:06.696Z,40.00
2022-07-28T03:59:06.616Z,36.00
2022-07-28T04:00:09.657Z,36.00
2022-07-28T04:01:06.846Z,40.00
2022-07-28T04:02:06.634Z,40.00
2022-07-28T04:03:22.055Z,40.00
2022-07-28T04:04:07.578Z,44.00
2022-07-28T04:05:06.556Z,44.00
2022-07-28T04:06:06.566Z,44.00
2022-07-28T04:07:06.565Z,48.00
2022-07-28T04:08:06.538Z,48.00
2022-07-28T04:09:06.521Z,48.00
2022-07-28T04:10:06.501Z,48.00
2022-07-28T04:11:06.529Z,52.00
2022-07-28T04:12:06.480Z,52.00
2022-07-28T04:13:06.509Z,48.00
2022-07-28T04:14:06.490Z,48.00
2022-07-28T04:15:06.459Z,52.00
2022-07-28T04:16:06.440Z,56.00
2022-07-28T04:17:06.505Z,56.00
2022-07-28T04:18:06.410Z,56.00
2022-07-28T04:19:06.433Z,56.00
2022-07-28T04:20:06.401Z,56.00
2022-07-28T04:21:06.396Z,56.00
2022-07-28T04:22:06.372Z,60.00
2022-07-28T04:23:06.382Z,60.00
2022-07-28T04:24:06.371Z,60.00
2022-07-28T04:25:06.342Z,64.00
2022-07-28T04:26:06.334Z,60.00
2022-07-28T04:27:06.335Z,56.00
2022-07-28T04:28:06.313Z,60.00
2022-07-28T04:29:06.303Z,60.00
2022-07-28T04:30:06.311Z,60.00
2022-07-28T04:31:06.332Z,60.00
2022-07-28T04:32:06.281Z,64.00
2022-07-28T04:33:06.265Z,68.00
2022-07-28T04:34:06.244Z,76.00
2022-07-28T04:35:06.246Z,72.00
2022-07-28T04:36:06.608Z,68.00
2022-07-28T04:37:06.217Z,68.00
2022-07-28T04:38:06.215Z,68.00
2022-07-28T04:39:06.198Z,68.00
2022-07-28T04:40:06.175Z,68.00
2022-07-28T04:41:06.217Z,68.00
2022-07-28T04:42:06.164Z,68.00
2022-07-28T04:43:06.146Z,72.00
2022-07-28T04:44:06.146Z,80.00
2022-07-28T04:45:06.131Z,80.00
2022-07-28T04:46:06.177Z,80.00
2022-07-28T04:47:06.374Z,80.00
2022-07-28T04:48:06.103Z,84.00
2022-07-28T04:49:06.178Z,88.00
2022-07-28T04:50:06.067Z,88.00
2022-07-28T04:51:06.049Z,88.00
2022-07-28T04:52:06.045Z,96.00
2022-07-28T04:53:06.056Z,100.00
2022-07-28T04:54:06.018Z,96.00
2022-07-28T04:55:06.011Z,96.00
2022-07-28T04:56:06.008Z,100.00
2022-07-28T04:57:10.439Z,108.00
2022-07-28T04:58:07.029Z,112.00
2022-07-28T04:59:05.972Z,116.00
2022-07-28T05:00:05.972Z,116.00
2022-07-28T05:01:06.025Z,120.00
2022-07-28T05:02:05.973Z,128.00
2022-07-28T05:03:05.961Z,140.00
2022-07-28T05:04:05.992Z,132.00
2022-07-28T05:05:05.986Z,124.00
2022-07-28T05:06:05.895Z,124.00
2022-07-28T05:07:12.499Z,124.00
2022-07-28T05:08:06.863Z,136.00
2022-07-28T05:09:05.902Z,144.00
2022-07-28T05:10:05.841Z,136.00
2022-07-28T05:11:05.834Z,136.00
2022-07-28T05:12:05.837Z,136.00
2022-07-28T05:13:05.821Z,140.00
2022-07-28T05:14:05.815Z,136.00
2022-07-28T05:15:05.806Z,132.00
2022-07-28T05:16:05.842Z,140.00
2022-07-28T05:17:05.767Z,160.00
2022-07-28T05:18:05.781Z,152.00
2022-07-28T05:19:05.746Z,152.00
2022-07-28T05:20:05.757Z,156.00
2022-07-28T05:21:05.737Z,156.00
2022-07-28T05:22:05.727Z,156.00
2022-07-28T05:23:05.710Z,164.00
2022-07-28T05:24:05.718Z,172.00
2022-07-28T05:25:05.685Z,172.00
2022-07-28T05:26:05.709Z,172.00
2022-07-28T05:27:05.676Z,176.00
2022-07-28T05:28:05.661Z,184.00
2022-07-28T05:29:05.638Z,180.00
2022-07-28T05:30:05.638Z,176.00
2022-07-28T05:31:05.681Z,192.00
2022-07-28T05:32:16.859Z,192.00
2022-07-28T05:33:06.598Z,208.00
2022-07-28T05:34:05.590Z,196.00
2022-07-28T05:35:05.591Z,224.00
2022-07-28T05:36:05.560Z,204.00
2022-07-28T05:37:05.637Z,208.00
2022-07-28T05:38:10.493Z,208.00
2022-07-28T05:39:06.531Z,188.00
2022-07-28T05:40:05.532Z,188.00
2022-07-28T05:41:05.541Z,220.00
2022-07-28T05:42:05.500Z,220.00
2022-07-28T05:43:05.523Z,192.00
2022-07-28T05:44:05.501Z,228.00
2022-07-28T05:45:05.464Z,232.00
2022-07-28T05:46:06.503Z,224.00
2022-07-28T05:47:05.482Z,228.00
2022-07-28T05:48:05.436Z,216.00
2022-07-28T05:49:05.515Z,216.00
2022-07-28T05:50:05.424Z,224.00
2022-07-28T05:51:05.403Z,236.00
2022-07-28T05:52:05.395Z,232.00
2022-07-28T05:53:05.385Z,232.00
2022-07-28T05:54:05.400Z,244.00
2022-07-28T05:55:05.357Z,240.00
2022-07-28T05:56:05.410Z,240.00
2022-07-28T05:57:05.337Z,228.00
2022-07-28T05:58:05.342Z,244.00
2022-07-28T05:59:05.328Z,248.00
2022-07-28T06:00:05.359Z,244.00
2022-07-28T06:01:05.348Z,232.00
2022-07-28T06:02:05.384Z,264.00
2022-07-28T06:03:05.282Z,268.00
2022-07-28T06:04:26.890Z,256.00
2022-07-28T06:05:06.301Z,272.00
2022-07-28T06:06:15.197Z,272.00
2022-07-28T06:07:06.231Z,260.00
2022-07-28T06:08:05.237Z,248.00
2022-07-28T06:09:05.210Z,256.00
2022-07-28T06:10:05.200Z,256.00
2022-07-28T06:11:05.241Z,256.00
2022-07-28T06:12:05.170Z,252.00
2022-07-28T06:13:05.160Z,268.00
2022-07-28T06:14:05.163Z,272.00
2022-07-28T06:15:05.144Z,268.00
2022-07-28T06:16:07.328Z,264.00
2022-07-28T06:17:06.186Z,284.00
2022-07-28T06:18:05.113Z,284.00
2022-07-28T06:19:05.093Z,280.00
2022-07-28T06:20:05.113Z,300.00
2022-07-28T06:21:05.083Z,300.00
2022-07-28T06:22:05.082Z,304.00
2022-07-28T06:23:05.077Z,308.00
2022-07-28T06:24:05.075Z,308.00
2022-07-28T06:25:05.041Z,304.00
2022-07-28T06:26:05.041Z,288.00
2022-07-28T06:27:05.041Z,312.00
2022-07-28T06:28:05.028Z,316.00
2022-07-28T06:29:04.996Z,332.00
2022-07-28T06:30:05.006Z,324.00
2022-07-28T06:31:05.123Z,320.00
2022-07-28T06:32:05.010Z,312.00
2022-07-28T06:33:04.969Z,308.00
2022-07-28T06:34:04.956Z,312.00
2022-07-28T06:35:04.934Z,312.00
2022-07-28T06:36:04.929Z,320.00
2022-07-28T06:37:04.916Z,316.00
2022-07-28T06:38:04.897Z,324.00
2022-07-28T06:39:04.919Z,328.00
2022-07-28T06:40:04.907Z,320.00
2022-07-28T06:41:04.868Z,324.00
2022-07-28T06:42:04.864Z,344.00
2022-07-28T06:43:04.874Z,336.00
2022-07-28T06:44:04.834Z,340.00
2022-07-28T06:45:04.868Z,332.00
2022-07-28T06:46:04.809Z,336.00
2022-07-28T06:47:04.908Z,340.00
2022-07-28T06:48:04.801Z,340.00
2022-07-28T06:49:04.837Z,336.00
2022-07-28T06:50:04.779Z,332.00
2022-07-28T06:51:04.780Z,356.00
2022-07-28T06:52:04.741Z,364.00
2022-07-28T06:53:04.732Z,360.00
2022-07-28T06:54:09.297Z,344.00
2022-07-28T06:55:05.739Z,352.00
2022-07-28T06:56:04.710Z,360.00
2022-07-28T06:57:04.748Z,348.00
2022-07-28T06:58:04.727Z,348.00
2022-07-28T06:59:04.664Z,360.00
2022-07-28T07:00:04.665Z,352.00
2022-07-28T07:01:04.777Z,340.00
2022-07-28T07:02:04.675Z,344.00
2022-07-28T07:03:04.656Z,368.00
2022-07-28T07:04:04.681Z,384.00
2022-07-28T07:05:04.604Z,384.00
2022-07-28T07:06:04.603Z,408.00
2022-07-28T07:07:04.575Z,424.00
2022-07-28T07:08:05.587Z,412.00
2022-07-28T07:09:04.566Z,400.00
2022-07-28T07:10:04.553Z,368.00
2022-07-28T07:11:04.541Z,364.00
2022-07-28T07:12:04.536Z,396.00
2022-07-28T07:13:04.520Z,388.00
2022-07-28T07:14:04.532Z,384.00
2022-07-28T07:15:04.508Z,384.00
2022-07-28T07:16:04.601Z,400.00
2022-07-28T07:17:04.516Z,416.00
2022-07-28T07:18:04.469Z,376.00
2022-07-28T07:19:06.823Z,280.00
2022-07-28T07:20:04.455Z,316.00
2022-07-28T07:21:04.428Z,324.00
2022-07-28T07:22:04.420Z,244.00
2022-07-28T07:23:04.433Z,276.00
2022-07-28T07:24:04.416Z,308.00
2022-07-28T07:25:04.404Z,268.00
2022-07-28T07:26:04.379Z,348.00
2022-07-28T07:27:04.358Z,460.00
2022-07-28T07:28:04.351Z,432.00
2022-07-28T07:29:04.358Z,288.00
2022-07-28T07:30:04.353Z,256.00
2022-07-28T07:31:04.433Z,256.00
2022-07-28T07:32:10.056Z,220.00
2022-07-28T07:33:07.036Z,276.00
2022-07-28T07:34:04.294Z,340.00
2022-07-28T07:35:04.286Z,324.00
2022-07-28T07:36:04.295Z,376.00
2022-07-28T07:37:04.294Z,380.00
2022-07-28T07:38:04.240Z,380.00
2022-07-28T07:39:04.274Z,372.00
2022-07-28T07:40:04.234Z,432.00
2022-07-28T07:41:04.231Z,428.00
2022-07-28T07:42:04.203Z,452.00
2022-07-28T07:43:04.193Z,432.00
2022-07-28T07:44:04.208Z,432.00
2022-07-28T07:45:04.178Z,480.00
2022-07-28T07:46:04.244Z,468.00
2022-07-28T07:47:04.220Z,476.00
2022-07-28T07:48:04.133Z,368.00
2022-07-28T07:49:04.209Z,380.00
2022-07-28T07:50:04.728Z,356.00
2022-07-28T07:51:04.132Z,428.00
2022-07-28T07:52:04.118Z,504.00
2022-07-28T07:53:04.086Z,524.00
2022-07-28T07:54:04.084Z,492.00
2022-07-28T07:55:04.057Z,452.00
2022-07-28T07:56:04.056Z,380.00
2022-07-28T07:57:04.068Z,480.00
2022-07-28T07:58:04.041Z,484.00
2022-07-28T07:59:04.019Z,504.00
2022-07-28T08:00:04.056Z,516.00
2022-07-28T08:01:04.022Z,500.00
2022-07-28T08:02:04.076Z,516.00
2022-07-28T08:03:03.992Z,492.00
2022-07-28T08:04:05.041Z,532.00
2022-07-28T08:05:03.972Z,540.00
2022-07-28T08:06:03.960Z,528.00
2022-07-28T08:07:03.935Z,516.00
2022-07-28T08:08:03.917Z,496.00
2022-07-28T08:09:03.951Z,448.00
2022-07-28T08:10:03.904Z,448.00
2022-07-28T08:11:03.959Z,412.00
2022-07-28T08:12:03.870Z,472.00
2022-07-28T08:13:03.866Z,516.00
2022-07-28T08:14:03.871Z,532.00
2022-07-28T08:15:03.857Z,548.00
2022-07-28T08:16:03.930Z,492.00
2022-07-28T08:17:03.852Z,420.00
2022-07-28T08:18:03.807Z,312.00
2022-07-28T08:19:03.813Z,288.00
2022-07-28T08:20:03.788Z,392.00
2022-07-28T08:21:03.764Z,428.00
2022-07-28T08:22:03.764Z,252.00
2022-07-28T08:23:03.757Z,220.00
2022-07-28T08:24:03.762Z,244.00
2022-07-28T08:25:03.727Z,368.00
2022-07-28T08:26:03.719Z,536.00
2022-07-28T08:27:03.719Z,544.00
2022-07-28T08:28:03.712Z,528.00
2022-07-28T08:29:03.700Z,592.00
2022-07-28T08:30:03.666Z,504.00
2022-07-28T08:31:03.748Z,416.00
2022-07-28T08:32:03.655Z,512.00
2022-07-28T08:33:03.659Z,496.00
2022-07-28T08:34:03.628Z,512.00
2022-07-28T08:35:31.772Z,556.00
2022-07-28T08:36:04.610Z,568.00
2022-07-28T08:37:03.631Z,548.00
2022-07-28T08:38:03.587Z,548.00
2022-07-28T08:39:03.578Z,560.00
2022-07-28T08:40:03.582Z,528.00
2022-07-28T08:41:03.559Z,424.00
2022-07-28T08:42:03.541Z,304.00
2022-07-28T08:43:03.530Z,324.00
2022-07-28T08:44:03.538Z,376.00
2022-07-28T08:45:03.613Z,316.00
2022-07-28T08:46:03.621Z,208.00
2022-07-28T08:47:03.549Z,200.00
2022-07-28T08:48:08.527Z,224.00
2022-07-28T08:49:04.493Z,476.00
2022-07-28T08:50:03.454Z,608.00
2022-07-28T08:51:03.494Z,552.00
2022-07-28T08:52:03.434Z,488.00
2022-07-28T08:53:03.428Z,300.00
2022-07-28T08:54:03.416Z,216.00
2022-07-28T08:55:03.403Z,184.00
2022-07-28T08:56:03.420Z,180.00
2022-07-28T08:57:03.392Z,188.00
2022-07-28T08:58:03.372Z,204.00
2022-07-28T08:59:03.365Z,204.00
2022-07-28T09:00:03.355Z,224.00
2022-07-28T09:01:03.347Z,220.00
2022-07-28T09:02:03.365Z,208.00
2022-07-28T09:03:03.571Z,188.00
2022-07-28T09:04:03.304Z,204.00
2022-07-28T09:05:03.316Z,276.00
2022-07-28T09:06:03.276Z,192.00
2022-07-28T09:07:03.326Z,208.00
2022-07-28T09:08:03.257Z,260.00
2022-07-28T09:09:03.248Z,368.00
2022-07-28T09:10:03.345Z,596.00
2022-07-28T09:11:03.228Z,708.00
2022-07-28T09:12:03.231Z,716.00
2022-07-28T09:13:03.241Z,688.00
2022-07-28T09:14:03.220Z,552.00
2022-07-28T09:15:03.194Z,480.00
2022-07-28T09:16:03.254Z,464.00
2022-07-28T09:17:03.161Z,428.00
2022-07-28T09:18:03.142Z,396.00
2022-07-28T09:19:03.170Z,460.00
2022-07-28T09:20:08.878Z,520.00
2022-07-28T09:21:04.121Z,340.00
2022-07-28T09:22:03.104Z,352.00
2022-07-28T09:23:03.091Z,304.00
2022-07-28T09:24:03.093Z,252.00
2022-07-28T09:25:03.120Z,276.00
2022-07-28T09:26:07.026Z,320.00
2022-07-28T09:27:04.061Z,324.00
2022-07-28T09:28:03.045Z,344.00
2022-07-28T09:29:03.039Z,416.00
2022-07-28T09:30:03.056Z,660.00
2022-07-28T09:31:03.081Z,772.00
2022-07-28T09:32:03.059Z,724.00
2022-07-28T09:33:03.001Z,680.00
2022-07-28T09:34:02.989Z,668.00
2022-07-28T09:35:03.216Z,636.00
2022-07-28T09:36:02.978Z,448.00
2022-07-28T09:37:02.974Z,404.00
2022-07-28T09:38:02.932Z,564.00
2022-07-28T09:39:02.938Z,648.00
2022-07-28T09:40:04.182Z,620.00
2022-07-28T09:41:02.914Z,512.00
2022-07-28T09:42:02.904Z,536.00
2022-07-28T09:43:02.889Z,556.00
2022-07-28T09:44:02.895Z,512.00
2022-07-28T09:45:21.723Z,320.00
2022-07-28T09:46:04.246Z,224.00
2022-07-28T09:47:02.967Z,236.00
2022-07-28T09:48:03.019Z,472.00
2022-07-28T09:49:02.984Z,564.00
2022-07-28T09:50:02.903Z,692.00
2022-07-28T09:51:02.801Z,676.00
2022-07-28T09:52:02.826Z,584.00
2022-07-28T09:53:02.801Z,464.00
2022-07-28T09:54:02.759Z,308.00
2022-07-28T09:55:02.750Z,312.00
2022-07-28T09:56:02.741Z,332.00
2022-07-28T09:57:02.797Z,408.00
2022-07-28T09:58:02.728Z,412.00
2022-07-28T09:59:02.699Z,432.00
2022-07-28T10:00:02.687Z,408.00
2022-07-28T10:01:02.678Z,436.00
2022-07-28T10:02:02.911Z,504.00
2022-07-28T10:03:02.781Z,736.00
2022-07-28T10:04:03.087Z,684.00
2022-07-28T10:05:02.619Z,504.00
2022-07-28T10:06:02.649Z,556.00
2022-07-28T10:07:02.655Z,376.00
2022-07-28T10:08:02.652Z,360.00
2022-07-28T10:09:02.661Z,464.00
2022-07-28T10:10:02.586Z,384.00
2022-07-28T10:11:02.574Z,376.00
2022-07-28T10:12:02.575Z,368.00
2022-07-28T10:13:02.555Z,380.00
2022-07-28T10:14:02.585Z,372.00
2022-07-28T10:15:02.532Z,368.00
2022-07-28T10:16:02.580Z,384.00
2022-07-28T10:17:06.036Z,408.00
2022-07-28T10:18:02.504Z,416.00
2022-07-28T10:19:02.517Z,268.00
2022-07-28T10:20:02.517Z,240.00
2022-07-28T10:21:02.465Z,360.00
2022-07-28T10:22:02.457Z,360.00
2022-07-28T10:23:02.451Z,356.00
2022-07-28T10:24:02.438Z,360.00
2022-07-28T10:25:02.442Z,368.00
2022-07-28T10:26:02.437Z,372.00
2022-07-28T10:27:02.407Z,368.00
2022-07-28T10:28:02.408Z,372.00
2022-07-28T10:29:02.388Z,388.00
2022-07-28T10:30:02.376Z,392.00
2022-07-28T10:31:02.445Z,412.00
2022-07-28T10:32:02.358Z,420.00
2022-07-28T10:33:02.385Z,460.00
2022-07-28T10:34:02.324Z,788.00
2022-07-28T10:35:02.332Z,580.00
2022-07-28T10:36:02.319Z,452.00
2022-07-28T10:37:02.330Z,472.00
2022-07-28T10:38:02.288Z,468.00
2022-07-28T10:39:02.290Z,256.00
2022-07-28T10:40:06.528Z,400.00
2022-07-28T10:41:03.250Z,392.00
2022-07-28T10:42:02.234Z,428.00
2022-07-28T10:43:02.252Z,424.00
2022-07-28T10:44:02.249Z,440.00
2022-07-28T10:45:02.220Z,456.00
2022-07-28T10:46:06.035Z,460.00
2022-07-28T10:47:02.237Z,480.00
2022-07-28T10:48:02.200Z,480.00
2022-07-28T10:49:03.760Z,448.00
2022-07-28T10:50:02.143Z,420.00
2022-07-28T10:51:02.144Z,408.00
2022-07-28T10:52:06.349Z,440.00
2022-07-28T10:53:03.173Z,704.00
2022-07-28T10:54:02.103Z,584.00
2022-07-28T10:55:02.099Z,588.00
2022-07-28T10:56:02.089Z,392.00
2022-07-28T10:57:04.909Z,332.00
2022-07-28T10:58:11.579Z,316.00
2022-07-28T10:59:05.021Z,292.00
2022-07-28T11:00:12.152Z,264.00
2022-07-28T11:01:06.368Z,404.00
2022-07-28T11:02:02.204Z,512.00
2022-07-28T11:03:02.161Z,548.00
2022-07-28T11:04:03.028Z,500.00
2022-07-28T11:05:02.005Z,464.00
2022-07-28T11:06:01.985Z,460.00
2022-07-28T11:07:01.959Z,468.00
2022-07-28T11:08:01.976Z,468.00
2022-07-28T11:09:01.959Z,504.00
2022-07-28T11:10:01.998Z,544.00
2022-07-28T11:11:09.512Z,584.00
2022-07-28T11:12:02.913Z,576.00
2022-07-28T11:13:04.124Z,548.00
2022-07-28T11:14:01.933Z,396.00
2022-07-28T11:15:18.585Z,492.00
2022-07-28T11:16:02.871Z,484.00
2022-07-28T11:17:01.931Z,480.00
2022-07-28T11:18:01.852Z,484.00
2022-07-28T11:19:01.822Z,424.00
2022-07-28T11:20:27.317Z,468.00
2022-07-28T11:21:02.910Z,476.00
2022-07-28T11:22:01.866Z,528.00
2022-07-28T11:23:01.782Z,548.00
2022-07-28T11:24:01.865Z,560.00
2022-07-28T11:25:18.025Z,568.00
2022-07-28T11:26:02.745Z,572.00
2022-07-28T11:27:04.139Z,576.00
2022-07-28T11:28:01.730Z,576.00
2022-07-28T11:29:01.720Z,576.00
2022-07-28T11:30:01.727Z,624.00
2022-07-28T11:31:01.825Z,636.00
2022-07-28T11:32:01.681Z,552.00
2022-07-28T11:33:01.678Z,604.00
2022-07-28T11:34:01.657Z,648.00
2022-07-28T11:35:01.658Z,384.00
2022-07-28T11:36:02.423Z,572.00
2022-07-28T11:37:01.637Z,676.00
2022-07-28T11:38:01.859Z,676.00
2022-07-28T11:39:01.623Z,664.00
2022-07-28T11:40:01.598Z,680.00
2022-07-28T11:41:01.627Z,668.00
2022-07-28T11:42:01.607Z,652.00
2022-07-28T11:43:01.571Z,676.00
2022-07-28T11:44:01.572Z,660.00
2022-07-28T11:45:01.542Z,692.00
2022-07-28T11:46:01.656Z,652.00
2022-07-28T11:47:01.560Z,400.00
2022-07-28T11:48:01.509Z,788.00
2022-07-28T11:49:01.546Z,876.00
2022-07-28T11:50:01.528Z,904.00
2022-07-28T11:51:01.476Z,1032.00
2022-07-28T11:52:01.470Z,784.00
2022-07-28T11:53:01.452Z,620.00
2022-07-28T11:54:01.461Z,664.00
2022-07-28T11:55:01.483Z,940.00
2022-07-28T11:56:02.798Z,928.00
2022-07-28T11:57:01.411Z,912.00
2022-07-28T11:58:01.408Z,892.00
2022-07-28T11:59:01.381Z,908.00
2022-07-28T12:00:01.422Z,780.00
2022-07-28T12:01:01.365Z,876.00
2022-07-28T12:02:01.385Z,912.00
2022-07-28T12:03:01.359Z,1008.00
2022-07-28T12:04:01.391Z,1128.00
2022-07-28T12:05:01.379Z,1080.00
2022-07-28T12:06:01.345Z,932.00
2022-07-28T12:07:01.312Z,584.00
2022-07-28T12:08:01.333Z,792.00
2022-07-28T12:09:01.317Z,836.00
2022-07-28T12:10:01.256Z,936.00
2022-07-28T12:11:01.294Z,988.00
2022-07-28T12:12:01.309Z,956.00
2022-07-28T12:13:01.238Z,924.00
2022-07-28T12:14:01.237Z,880.00
2022-07-28T12:15:06.739Z,900.00
2022-07-28T12:16:02.234Z,904.00
2022-07-28T12:17:01.264Z,940.00
2022-07-28T12:18:01.182Z,984.00
2022-07-28T12:19:01.816Z,1028.00
2022-07-28T12:20:01.171Z,1064.00
2022-07-28T12:21:05.079Z,1120.00
2022-07-28T12:22:01.139Z,996.00
2022-07-28T12:23:01.165Z,800.00
2022-07-28T12:24:01.110Z,828.00
2022-07-28T12:25:01.126Z,1040.00
2022-07-28T12:26:01.092Z,1080.00
2022-07-28T12:27:01.103Z,1088.00
2022-07-28T12:28:02.083Z,696.00
2022-07-28T12:29:01.210Z,876.00
2022-07-28T12:30:01.053Z,700.00
2022-07-28T12:31:01.064Z,1088.00
2022-07-28T12:32:01.127Z,1256.00
2022-07-28T12:33:01.022Z,1192.00
2022-07-28T12:34:01.004Z,1256.00
2022-07-28T12:35:01.006Z,1200.00
2022-07-28T12:36:01.008Z,1088.00
2022-07-28T12:37:01.024Z,1088.00
2022-07-28T12:38:00.966Z,1016.00
2022-07-28T12:39:00.965Z,1144.00
2022-07-28T12:40:00.946Z,1216.00
2022-07-28T12:41:00.937Z,1192.00
2022-07-28T12:42:00.926Z,1140.00
2022-07-28T12:43:00.939Z,756.00